createdAt,value
2019-01-14T00:00:05.601Z,75.77
2019-01-14T00:01:05.579Z,75.05
2019-01-14T00:02:05.565Z,74.02
2019-01-14T00:03:05.587Z,73.81
2019-01-14T00:04:05.542Z,73.81
2019-01-14T00:05:06.015Z,74.63
2019-01-14T00:06:10.108Z,74.43
2019-01-14T00:07:05.509Z,74.53
2019-01-14T00:08:05.498Z,75.15
2019-01-14T00:09:05.481Z,74.95
2019-01-14T00:10:05.512Z,74.95
2019-01-14T00:11:05.462Z,75.39
2019-01-14T00:12:05.449Z,75.67
2019-01-14T00:13:05.440Z,74.63
2019-01-14T00:14:05.427Z,74.74
2019-01-14T00:15:05.438Z,71.67
2019-01-14T00:16:05.424Z,72.19
2019-01-14T00:17:05.407Z,72.91
2019-01-14T00:18:05.417Z,72.71
2019-01-14T00:19:05.384Z,72.40
2019-01-14T00:20:05.388Z,71.88
2019-01-14T00:21:05.358Z,71.26
2019-01-14T00:22:05.340Z,71.06
2019-01-14T00:23:05.323Z,69.51
2019-01-14T00:24:05.317Z,71.06
2019-01-14T00:25:05.375Z,70.03
2019-01-14T00:26:05.296Z,69.37
2019-01-14T00:27:05.287Z,68.34
2019-01-14T00:28:05.278Z,68.65
2019-01-14T00:29:05.258Z,68.88
2019-01-14T00:30:05.269Z,69.68
2019-01-14T00:31:05.243Z,68.37
2019-01-14T00:32:05.229Z,69.20
2019-01-14T00:33:05.216Z,69.58
2019-01-14T00:34:05.201Z,69.06
2019-01-14T00:35:05.247Z,69.51
2019-01-14T00:36:05.185Z,70.12
2019-01-14T00:37:05.171Z,70.95
2019-01-14T00:38:05.160Z,70.75
2019-01-14T00:39:05.147Z,70.23
2019-01-14T00:40:05.155Z,71.37
2019-01-14T00:41:05.128Z,71.06
2019-01-14T00:42:05.114Z,71.88
2019-01-14T00:43:05.106Z,72.81
2019-01-14T00:44:05.096Z,72.81
2019-01-14T00:45:05.141Z,72.74
2019-01-14T00:46:05.069Z,73.47
2019-01-14T00:47:05.059Z,73.98
2019-01-14T00:48:05.050Z,73.57
2019-01-14T00:49:05.039Z,73.88
2019-01-14T00:50:05.031Z,73.88
2019-01-14T00:51:05.029Z,73.81
2019-01-14T00:52:05.011Z,73.36
2019-01-14T00:53:04.996Z,73.36
2019-01-14T00:54:04.980Z,73.05
2019-01-14T00:55:04.969Z,72.85
2019-01-14T00:56:04.977Z,72.64
2019-01-14T00:57:04.953Z,72.64
2019-01-14T00:58:04.935Z,72.64
2019-01-14T00:59:04.925Z,72.47
2019-01-14T01:00:04.912Z,73.29
2019-01-14T01:01:04.917Z,72.57
2019-01-14T01:02:04.886Z,72.26
2019-01-14T01:03:04.876Z,72.57
2019-01-14T01:04:04.871Z,72.47
2019-01-14T01:05:04.857Z,72.98
2019-01-14T01:06:04.861Z,72.26
2019-01-14T01:07:04.830Z,72.16
2019-01-14T01:08:04.831Z,72.26
2019-01-14T01:09:04.813Z,72.12
2019-01-14T01:10:04.801Z,71.33
2019-01-14T01:11:04.805Z,71.64
2019-01-14T01:12:04.783Z,72.05
2019-01-14T01:13:04.763Z,71.33
2019-01-14T01:14:04.760Z,71.02
2019-01-14T01:15:04.744Z,71.95
2019-01-14T01:16:04.751Z,71.74
2019-01-14T01:17:04.728Z,71.74
2019-01-14T01:18:04.709Z,71.30
2019-01-14T01:19:04.699Z,71.43
2019-01-14T01:20:04.689Z,71.22
2019-01-14T01:21:04.694Z,72.05
2019-01-14T01:22:04.665Z,71.61
2019-01-14T01:23:04.655Z,71.19
2019-01-14T01:24:04.641Z,71.33
2019-01-14T01:25:04.631Z,72.98
2019-01-14T01:26:04.650Z,73.29
2019-01-14T01:27:04.614Z,72.98
2019-01-14T01:28:04.595Z,73.64
2019-01-14T01:29:04.594Z,74.05
2019-01-14T01:30:04.573Z,73.94
2019-01-14T01:31:04.588Z,74.36
2019-01-14T01:32:04.550Z,74.46
2019-01-14T01:33:04.542Z,74.60
2019-01-14T01:34:04.532Z,74.67
2019-01-14T01:35:04.515Z,74.88
2019-01-14T01:36:04.602Z,74.57
2019-01-14T01:37:04.501Z,74.46
2019-01-14T01:38:04.496Z,73.74
2019-01-14T01:39:04.478Z,74.05
2019-01-14T01:40:04.466Z,73.94
2019-01-14T01:41:04.475Z,73.84
2019-01-14T01:42:04.443Z,74.29
2019-01-14T01:43:04.431Z,74.26
2019-01-14T01:44:04.429Z,74.57
2019-01-14T01:45:04.409Z,74.67
2019-01-14T01:46:04.413Z,74.98
2019-01-14T01:47:04.387Z,75.40
2019-01-14T01:48:04.373Z,75.95
2019-01-14T01:49:04.363Z,75.70
2019-01-14T01:50:04.348Z,75.60
2019-01-14T01:51:04.365Z,76.32
2019-01-14T01:52:04.330Z,76.36
2019-01-14T01:53:04.315Z,76.98
2019-01-14T01:54:04.309Z,76.88
2019-01-14T01:55:04.292Z,76.98
2019-01-14T01:56:04.286Z,77.50
2019-01-14T01:57:04.291Z,77.39
2019-01-14T01:58:04.262Z,77.81
2019-01-14T01:59:04.251Z,77.60
2019-01-14T02:00:04.241Z,78.47
2019-01-14T02:01:04.231Z,79.05
2019-01-14T02:02:04.235Z,78.78
2019-01-14T02:03:04.209Z,78.57
2019-01-14T02:04:04.193Z,78.78
2019-01-14T02:05:04.188Z,78.67
2019-01-14T02:06:04.178Z,78.26
2019-01-14T02:07:04.180Z,77.39
2019-01-14T02:08:04.148Z,77.01
2019-01-14T02:09:04.145Z,76.81
2019-01-14T02:10:04.126Z,76.81
2019-01-14T02:11:04.118Z,76.67
2019-01-14T02:12:04.125Z,77.39
2019-01-14T02:13:04.096Z,77.01
2019-01-14T02:14:04.080Z,76.61
2019-01-14T02:15:04.069Z,75.63
2019-01-14T02:16:04.076Z,76.36
2019-01-14T02:17:04.078Z,76.26
2019-01-14T02:18:04.041Z,76.57
2019-01-14T02:19:04.031Z,75.84
2019-01-14T02:20:04.014Z,75.32
2019-01-14T02:21:04.006Z,75.53
2019-01-14T02:22:04.008Z,76.61
2019-01-14T02:23:03.983Z,76.36
2019-01-14T02:24:03.968Z,75.98
2019-01-14T02:25:03.955Z,75.67
2019-01-14T02:26:03.947Z,75.15
2019-01-14T02:27:03.963Z,75.22
2019-01-14T02:28:03.922Z,75.05
2019-01-14T02:29:03.915Z,74.91
2019-01-14T02:30:03.906Z,74.60
2019-01-14T02:31:03.893Z,74.08
2019-01-14T02:32:03.903Z,74.08
2019-01-14T02:33:03.872Z,74.22
2019-01-14T02:34:03.857Z,74.29
2019-01-14T02:35:03.850Z,75.22
2019-01-14T02:36:03.834Z,74.74
2019-01-14T02:37:03.861Z,74.74
2019-01-14T02:38:03.811Z,74.53
2019-01-14T02:39:03.801Z,74.22
2019-01-14T02:40:03.789Z,73.91
2019-01-14T02:41:03.786Z,74.12
2019-01-14T02:42:03.796Z,73.81
2019-01-14T02:43:03.756Z,74.22
2019-01-14T02:44:03.749Z,74.12
2019-01-14T02:45:03.736Z,73.60
2019-01-14T02:46:03.730Z,73.50
2019-01-14T02:47:03.715Z,73.50
2019-01-14T02:48:03.718Z,73.50
2019-01-14T02:49:03.691Z,73.39
2019-01-14T02:50:03.683Z,73.08
2019-01-14T02:51:03.671Z,73.39
2019-01-14T02:52:03.660Z,73.19
2019-01-14T02:53:03.661Z,72.88
2019-01-14T02:54:03.632Z,72.85
2019-01-14T02:55:03.627Z,72.56
2019-01-14T02:56:03.611Z,72.56
2019-01-14T02:57:03.604Z,72.12
2019-01-14T02:58:03.606Z,71.22
2019-01-14T02:59:03.579Z,71.94
2019-01-14T03:00:03.572Z,71.19
2019-01-14T03:01:03.573Z,72.25
2019-01-14T03:02:03.546Z,72.46
2019-01-14T03:03:03.552Z,72.56
2019-01-14T03:04:03.523Z,71.63
2019-01-14T03:05:03.518Z,72.25
2019-01-14T03:06:03.501Z,71.22
2019-01-14T03:07:03.493Z,71.50
2019-01-14T03:08:03.501Z,71.53
2019-01-14T03:09:03.473Z,71.22
2019-01-14T03:10:03.454Z,71.12
2019-01-14T03:11:03.451Z,71.63
2019-01-14T03:12:03.432Z,72.15
2019-01-14T03:13:03.438Z,71.33
2019-01-14T03:14:03.413Z,71.84
2019-01-14T03:15:03.397Z,71.43
2019-01-14T03:16:03.389Z,72.15
2019-01-14T03:17:03.377Z,72.05
2019-01-14T03:18:03.391Z,71.53
2019-01-14T03:19:03.354Z,70.91
2019-01-14T03:20:03.341Z,71.53
2019-01-14T03:21:03.333Z,71.53
2019-01-14T03:22:03.321Z,71.12
2019-01-14T03:23:03.313Z,71.56
2019-01-14T03:24:03.314Z,71.53
2019-01-14T03:25:03.291Z,71.25
2019-01-14T03:26:03.281Z,71.33
2019-01-14T03:27:03.273Z,71.43
2019-01-14T03:28:03.262Z,71.33
2019-01-14T03:29:03.259Z,70.29
2019-01-14T03:30:03.233Z,71.12
2019-01-14T03:31:03.218Z,70.70
2019-01-14T03:32:03.211Z,70.91
2019-01-14T03:33:03.200Z,70.39
2019-01-14T03:34:03.203Z,71.04
2019-01-14T03:35:03.173Z,71.01
2019-01-14T03:36:03.171Z,71.01
2019-01-14T03:37:05.641Z,70.73
2019-01-14T03:38:03.141Z,70.29
2019-01-14T03:39:03.148Z,71.15
2019-01-14T03:40:03.120Z,71.33
2019-01-14T03:41:03.106Z,70.81
2019-01-14T03:42:03.097Z,71.12
2019-01-14T03:43:03.093Z,70.70
2019-01-14T03:44:03.098Z,70.91
2019-01-14T03:45:03.062Z,70.42
2019-01-14T03:46:03.065Z,69.77
2019-01-14T03:47:03.045Z,69.39
2019-01-14T03:48:03.039Z,69.25
2019-01-14T03:49:03.034Z,69.46
2019-01-14T03:50:03.005Z,69.35
2019-01-14T03:51:03.015Z,69.35
2019-01-14T03:52:02.989Z,69.25
2019-01-14T03:53:02.973Z,69.08
2019-01-14T03:54:02.978Z,69.46
2019-01-14T03:55:02.952Z,69.15
2019-01-14T03:56:02.935Z,69.56
2019-01-14T03:57:02.929Z,69.60
2019-01-14T03:58:02.918Z,69.39
2019-01-14T03:59:02.925Z,70.18
2019-01-14T04:00:02.915Z,69.39
2019-01-14T04:01:02.885Z,69.70
2019-01-14T04:02:02.877Z,70.42
2019-01-14T04:03:02.866Z,70.42
2019-01-14T04:04:02.849Z,70.84
2019-01-14T04:05:02.854Z,70.21
2019-01-14T04:06:02.827Z,70.42
2019-01-14T04:07:02.816Z,71.15
2019-01-14T04:08:02.805Z,70.73
2019-01-14T04:09:02.793Z,70.53
2019-01-14T04:10:02.801Z,70.32
2019-01-14T04:11:02.771Z,70.11
2019-01-14T04:12:02.760Z,70.01
2019-01-14T04:13:02.752Z,69.90
2019-01-14T04:14:02.737Z,69.84
2019-01-14T04:15:02.747Z,69.11
2019-01-14T04:16:02.717Z,69.53
2019-01-14T04:17:02.705Z,69.01
2019-01-14T04:18:02.695Z,69.01
2019-01-14T04:19:02.683Z,69.32
2019-01-14T04:20:02.686Z,69.21
2019-01-14T04:21:02.662Z,69.11
2019-01-14T04:22:02.671Z,69.01
2019-01-14T04:23:02.642Z,69.42
2019-01-14T04:24:02.630Z,70.46
2019-01-14T04:25:02.636Z,69.32
2019-01-14T04:26:02.605Z,69.32
2019-01-14T04:27:02.591Z,69.01
2019-01-14T04:28:02.583Z,69.01
2019-01-14T04:29:02.568Z,69.32
2019-01-14T04:30:02.572Z,69.11
2019-01-14T04:31:02.545Z,69.14
2019-01-14T04:32:02.537Z,69.35
2019-01-14T04:33:02.528Z,69.24
2019-01-14T04:34:02.520Z,68.73
2019-01-14T04:35:02.515Z,67.17
2019-01-14T04:36:02.495Z,68.21
2019-01-14T04:37:02.479Z,67.27
2019-01-14T04:38:02.467Z,67.48
2019-01-14T04:39:02.473Z,67.41
2019-01-14T04:40:02.487Z,66.96
2019-01-14T04:41:02.434Z,66.78
2019-01-14T04:42:02.420Z,67.30
2019-01-14T04:43:02.415Z,67.41
2019-01-14T04:44:02.401Z,66.68
2019-01-14T04:45:02.434Z,65.86
2019-01-14T04:46:02.393Z,65.65
2019-01-14T04:47:02.363Z,65.58
2019-01-14T04:48:02.361Z,64.54
2019-01-14T04:49:02.343Z,64.75
2019-01-14T04:50:02.340Z,64.64
2019-01-14T04:51:02.343Z,64.43
2019-01-14T04:52:02.313Z,63.50
2019-01-14T04:53:02.306Z,63.29
2019-01-14T04:54:02.292Z,63.29
2019-01-14T04:55:02.288Z,62.36
2019-01-14T04:56:02.285Z,62.70
2019-01-14T04:57:02.265Z,63.32
2019-01-14T04:58:02.244Z,63.84
2019-01-14T04:59:02.232Z,64.25
2019-01-14T05:00:02.227Z,62.49
2019-01-14T05:01:02.225Z,62.90
2019-01-14T05:02:02.215Z,62.80
2019-01-14T05:03:02.191Z,63.11
2019-01-14T05:04:02.175Z,63.11
2019-01-14T05:05:02.167Z,61.97
2019-01-14T05:06:02.172Z,62.38
2019-01-14T05:07:02.147Z,62.59
2019-01-14T05:08:02.137Z,61.14
2019-01-14T05:09:02.121Z,61.14
2019-01-14T05:10:02.116Z,61.24
2019-01-14T05:11:02.113Z,61.55
2019-01-14T05:12:02.087Z,62.18
2019-01-14T05:13:02.076Z,61.97
2019-01-14T05:14:02.067Z,62.70
2019-01-14T05:15:02.055Z,62.31
2019-01-14T05:16:02.058Z,61.55
2019-01-14T05:17:02.033Z,62.18
2019-01-14T05:18:02.020Z,61.66
2019-01-14T05:19:02.011Z,61.97
2019-01-14T05:20:02.000Z,62.07
2019-01-14T05:21:02.000Z,62.07
2019-01-14T05:22:01.977Z,61.97
2019-01-14T05:23:01.969Z,61.87
2019-01-14T05:24:01.960Z,62.31
2019-01-14T05:25:01.946Z,62.31
2019-01-14T05:26:01.951Z,62.73
2019-01-14T05:27:01.920Z,62.31
2019-01-14T05:28:01.915Z,62.10
2019-01-14T05:29:01.900Z,62.41
2019-01-14T05:30:01.894Z,62.07
2019-01-14T05:31:01.895Z,62.18
2019-01-14T05:32:01.882Z,61.69
2019-01-14T05:33:01.853Z,62.18
2019-01-14T05:34:01.843Z,62.70
2019-01-14T05:35:01.838Z,62.62
2019-01-14T05:36:01.828Z,62.38
2019-01-14T05:37:01.821Z,62.80
2019-01-14T05:38:01.807Z,62.83
2019-01-14T05:39:01.787Z,63.01
2019-01-14T05:40:01.773Z,63.11
2019-01-14T05:41:01.767Z,63.11
2019-01-14T05:42:01.835Z,63.01
2019-01-14T05:43:01.743Z,63.21
2019-01-14T05:44:01.739Z,63.32
2019-01-14T05:45:01.766Z,63.21
2019-01-14T05:46:01.711Z,63.73
2019-01-14T05:47:01.717Z,63.11
2019-01-14T05:48:01.683Z,63.63
2019-01-14T05:49:01.675Z,63.53
2019-01-14T05:50:01.661Z,62.59
2019-01-14T05:51:01.651Z,62.38
2019-01-14T05:52:01.668Z,62.62
2019-01-14T05:53:01.630Z,61.55
2019-01-14T05:54:01.623Z,61.66
2019-01-14T05:55:01.607Z,61.76
2019-01-14T05:56:01.595Z,62.28
2019-01-14T05:57:01.599Z,62.28
2019-01-14T05:58:01.568Z,62.49
2019-01-14T05:59:01.559Z,62.90
2019-01-14T06:00:01.557Z,62.70
2019-01-14T06:01:01.539Z,61.76
2019-01-14T06:02:01.558Z,62.18
2019-01-14T06:03:01.519Z,62.18
2019-01-14T06:04:01.511Z,61.14
2019-01-14T06:05:01.497Z,62.07
2019-01-14T06:06:01.485Z,61.55
2019-01-14T06:07:01.472Z,61.76
2019-01-14T06:08:01.475Z,61.87
2019-01-14T06:09:01.451Z,61.97
2019-01-14T06:10:01.441Z,61.66
2019-01-14T06:11:01.429Z,61.87
2019-01-14T06:12:01.450Z,62.28
2019-01-14T06:13:01.428Z,62.07
2019-01-14T06:14:01.401Z,62.59
2019-01-14T06:15:01.390Z,62.70
2019-01-14T06:16:01.372Z,63.01
2019-01-14T06:17:01.364Z,62.59
2019-01-14T06:18:01.365Z,62.90
2019-01-14T06:19:01.341Z,62.49
2019-01-14T06:20:01.327Z,62.18
2019-01-14T06:21:01.319Z,62.38
2019-01-14T06:22:01.311Z,61.97
2019-01-14T06:23:01.313Z,62.07
2019-01-14T06:24:01.291Z,62.28
2019-01-14T06:25:01.273Z,61.87
2019-01-14T06:26:01.274Z,62.83
2019-01-14T06:27:01.255Z,62.21
2019-01-14T06:28:01.261Z,62.31
2019-01-14T06:29:01.229Z,62.52
2019-01-14T06:30:01.218Z,63.07
2019-01-14T06:31:01.210Z,62.96
2019-01-14T06:32:01.199Z,63.69
2019-01-14T06:33:01.217Z,64.21
2019-01-14T06:34:01.179Z,63.59
2019-01-14T06:35:01.161Z,64.00
2019-01-14T06:36:01.153Z,64.11
2019-01-14T06:37:01.143Z,63.69
2019-01-14T06:38:01.153Z,63.59
2019-01-14T06:39:01.121Z,64.62
2019-01-14T06:40:01.108Z,64.94
2019-01-14T06:41:01.099Z,65.04
2019-01-14T06:42:01.097Z,65.04
2019-01-14T06:43:01.137Z,65.87
2019-01-14T06:44:01.061Z,65.97
2019-01-14T06:45:01.054Z,66.71
2019-01-14T06:46:01.043Z,66.63
2019-01-14T06:47:01.032Z,66.81
2019-01-14T06:48:01.033Z,67.12
2019-01-14T06:49:01.009Z,67.77
2019-01-14T06:50:00.995Z,67.54
2019-01-14T06:51:00.984Z,67.36
2019-01-14T06:52:00.979Z,67.22
2019-01-14T06:53:00.985Z,67.46
2019-01-14T06:54:00.953Z,68.68
2019-01-14T06:55:00.941Z,69.54
2019-01-14T06:56:00.927Z,72.14
2019-01-14T06:57:00.918Z,74.43
2019-01-14T06:58:00.926Z,76.72
2019-01-14T06:59:00.910Z,79.35
2019-01-14T07:00:00.886Z,81.32
2019-01-14T07:01:00.878Z,84.21
2019-01-14T07:02:00.867Z,86.22
2019-01-14T07:03:00.854Z,87.93
2019-01-14T07:04:00.855Z,89.60
2019-01-14T07:05:00.830Z,90.68
2019-01-14T07:06:00.819Z,91.46
2019-01-14T07:07:00.811Z,92.18
2019-01-14T07:08:00.798Z,91.60
2019-01-14T07:09:00.802Z,92.33
2019-01-14T07:10:00.802Z,92.75
2019-01-14T07:11:00.759Z,92.44
2019-01-14T07:12:00.756Z,91.91
2019-01-14T07:13:00.769Z,90.87
2019-01-14T07:14:00.741Z,90.77
2019-01-14T07:15:00.719Z,90.56
2019-01-14T07:16:00.706Z,89.37
2019-01-14T07:17:00.693Z,88.85
2019-01-14T07:18:00.690Z,89.68
2019-01-14T07:19:00.692Z,88.01
2019-01-14T07:20:00.662Z,87.28
2019-01-14T07:21:00.650Z,86.24
2019-01-14T07:22:00.643Z,86.35
2019-01-14T07:23:00.627Z,85.93
2019-01-14T07:24:00.651Z,86.76
2019-01-14T07:25:00.614Z,84.88
2019-01-14T07:26:00.599Z,84.84
2019-01-14T07:27:00.589Z,83.80
2019-01-14T07:28:00.579Z,83.28
2019-01-14T07:29:00.585Z,82.82
2019-01-14T07:30:00.551Z,82.10
2019-01-14T07:31:00.540Z,82.14
2019-01-14T07:32:00.527Z,81.79
2019-01-14T07:33:00.517Z,81.79
2019-01-14T07:34:00.525Z,80.74
2019-01-14T07:35:02.159Z,80.85
2019-01-14T07:36:00.495Z,80.64
2019-01-14T07:37:00.473Z,80.33
2019-01-14T07:38:06.659Z,79.49
2019-01-14T07:39:01.479Z,79.60
2019-01-14T07:40:00.436Z,79.18
2019-01-14T07:41:00.426Z,79.49
2019-01-14T07:42:00.414Z,78.24
2019-01-14T07:43:00.411Z,78.34
2019-01-14T07:44:00.394Z,75.92
2019-01-14T07:45:00.399Z,76.89
2019-01-14T07:46:00.368Z,75.71
2019-01-14T07:47:00.361Z,73.63
2019-01-14T07:48:00.358Z,74.25
2019-01-14T07:49:00.339Z,73.00
2019-01-14T07:50:00.353Z,71.96
2019-01-14T07:51:00.317Z,71.23
2019-01-14T07:52:00.307Z,70.29
2019-01-14T07:53:00.291Z,69.67
2019-01-14T07:54:00.283Z,69.25
2019-01-14T07:55:00.297Z,69.67
2019-01-14T07:56:00.263Z,67.35
2019-01-14T07:57:00.253Z,67.66
2019-01-14T07:58:00.242Z,66.30
2019-01-14T07:59:00.228Z,66.41
2019-01-14T08:00:00.255Z,65.37
2019-01-14T08:01:00.205Z,64.85
2019-01-14T08:02:00.194Z,63.91
2019-01-14T08:03:00.185Z,62.98
2019-01-14T08:04:00.173Z,62.84
2019-01-14T08:05:00.252Z,62.32
2019-01-14T08:06:00.151Z,62.84
2019-01-14T08:07:00.140Z,61.28
2019-01-14T08:08:00.137Z,60.86
2019-01-14T08:09:00.121Z,60.97
2019-01-14T08:10:00.205Z,61.59
2019-01-14T08:11:00.096Z,60.66
2019-01-14T08:12:00.082Z,61.28
2019-01-14T08:13:00.069Z,60.73
2019-01-14T08:14:00.063Z,62.11
2019-01-14T08:15:00.092Z,62.43
2019-01-14T08:16:00.057Z,62.95
2019-01-14T08:17:00.037Z,62.60
2019-01-14T08:18:00.014Z,63.26
2019-01-14T08:19:00.007Z,63.46
2019-01-14T08:19:59.992Z,63.78
2019-01-14T08:20:59.998Z,64.40
2019-01-14T08:21:59.971Z,63.67
2019-01-14T08:22:59.959Z,64.19
2019-01-14T08:23:59.951Z,63.46
2019-01-14T08:24:59.941Z,63.88
2019-01-14T08:25:59.947Z,63.05
2019-01-14T08:26:59.928Z,63.78
2019-01-14T08:27:59.904Z,64.61
2019-01-14T08:28:59.896Z,64.19
2019-01-14T08:29:59.883Z,64.69
2019-01-14T08:30:59.895Z,63.98
2019-01-14T08:31:59.871Z,63.78
2019-01-14T08:32:59.843Z,64.72
2019-01-14T08:33:59.837Z,64.72
2019-01-14T08:34:59.833Z,63.67
2019-01-14T08:35:59.829Z,63.78
2019-01-14T08:37:00.887Z,64.72
2019-01-14T08:37:59.791Z,64.72
2019-01-14T08:38:59.790Z,64.51
2019-01-14T08:39:59.768Z,64.72
2019-01-14T08:40:59.773Z,65.44
2019-01-14T08:41:59.750Z,64.40
2019-01-14T08:42:59.736Z,64.92
2019-01-14T08:43:59.729Z,65.13
2019-01-14T08:44:59.722Z,65.13
2019-01-14T08:45:59.731Z,65.75
2019-01-14T08:46:59.692Z,65.65
2019-01-14T08:47:59.683Z,64.82
2019-01-14T08:48:59.669Z,65.13
2019-01-14T08:49:59.663Z,63.26
2019-01-14T08:50:59.669Z,63.88
2019-01-14T08:51:59.633Z,63.05
2019-01-14T08:52:59.629Z,62.95
2019-01-14T08:53:59.616Z,63.15
2019-01-14T08:54:59.605Z,63.26
2019-01-14T08:55:59.607Z,62.63
2019-01-14T08:56:59.583Z,62.43
2019-01-14T08:57:59.570Z,62.53
2019-01-14T08:58:59.578Z,61.28
2019-01-14T08:59:59.550Z,62.63
2019-01-14T09:00:59.563Z,61.49
2019-01-14T09:01:59.529Z,61.28
2019-01-14T09:02:59.521Z,62.01
2019-01-14T09:03:59.504Z,61.38
2019-01-14T09:04:59.502Z,60.76
2019-01-14T09:05:59.484Z,61.18
2019-01-14T09:06:59.492Z,61.18
2019-01-14T09:07:59.459Z,61.38
2019-01-14T09:08:59.452Z,60.97
2019-01-14T09:09:59.439Z,62.22
2019-01-14T09:10:59.434Z,62.74
2019-01-14T09:11:59.433Z,62.74
2019-01-14T09:12:59.410Z,61.38
2019-01-14T09:13:59.392Z,61.31
2019-01-14T09:14:59.387Z,61.31
2019-01-14T09:15:59.378Z,60.66
2019-01-14T09:16:59.371Z,61.28
2019-01-14T09:18:02.883Z,60.24
2019-01-14T09:18:59.336Z,59.51
2019-01-14T09:19:59.329Z,59.09
2019-01-14T09:20:59.319Z,59.09
2019-01-14T09:21:59.317Z,58.89
2019-01-14T09:22:59.292Z,59.41
2019-01-14T09:23:59.289Z,59.09
2019-01-14T09:24:59.268Z,58.34
2019-01-14T09:25:59.262Z,58.68
2019-01-14T09:26:59.275Z,60.35
2019-01-14T09:27:59.245Z,59.41
2019-01-14T09:28:59.232Z,59.09
2019-01-14T09:29:59.218Z,58.89
2019-01-14T09:30:59.209Z,58.44
2019-01-14T09:31:59.219Z,57.32
2019-01-14T09:32:59.186Z,59.09
2019-01-14T09:33:59.167Z,57.12
2019-01-14T09:34:59.157Z,57.32
2019-01-14T09:35:59.149Z,58.34
2019-01-14T09:36:59.155Z,57.61
2019-01-14T09:37:59.127Z,56.02
2019-01-14T09:38:59.119Z,56.76
2019-01-14T09:39:59.105Z,54.96
2019-01-14T09:40:59.099Z,54.42
2019-01-14T09:41:59.104Z,54.39
2019-01-14T09:42:59.087Z,55.12
2019-01-14T09:43:59.065Z,54.29
2019-01-14T09:44:59.048Z,54.29
2019-01-14T09:45:59.034Z,54.29
2019-01-14T09:46:59.025Z,54.91
2019-01-14T09:47:59.038Z,55.15
2019-01-14T09:48:59.005Z,54.83
2019-01-14T09:49:58.997Z,54.00
2019-01-14T09:50:58.983Z,53.04
2019-01-14T09:51:58.975Z,52.83
2019-01-14T09:52:58.987Z,51.90
2019-01-14T09:53:58.947Z,52.11
2019-01-14T09:54:58.936Z,52.21
2019-01-14T09:55:58.938Z,52.34
2019-01-14T09:56:58.915Z,53.04
2019-01-14T09:57:58.929Z,51.48
2019-01-14T09:58:58.896Z,50.92
2019-01-14T09:59:58.883Z,50.12
2019-01-14T10:00:58.877Z,52.94
2019-01-14T10:01:58.853Z,51.88
2019-01-14T10:02:58.864Z,51.46
2019-01-14T10:03:58.835Z,51.13
2019-01-14T10:04:58.825Z,50.65
2019-01-14T10:05:58.811Z,51.59
2019-01-14T10:06:58.863Z,51.05
2019-01-14T10:07:58.808Z,51.15
2019-01-14T10:08:58.787Z,51.23
2019-01-14T10:09:58.772Z,50.04
2019-01-14T10:10:58.761Z,49.81
2019-01-14T10:11:58.745Z,49.61
2019-01-14T10:12:58.749Z,49.15
2019-01-14T10:13:58.721Z,47.28
2019-01-14T10:14:58.717Z,47.08
2019-01-14T10:15:58.697Z,47.74
2019-01-14T10:16:58.692Z,48.39
2019-01-14T10:17:58.719Z,48.20
2019-01-14T10:18:58.680Z,49.78
2019-01-14T10:19:58.661Z,50.61
2019-01-14T10:20:58.652Z,49.24
2019-01-14T10:21:58.643Z,48.55
2019-01-14T10:22:58.650Z,49.21
2019-01-14T10:23:58.613Z,48.44
2019-01-14T10:24:58.603Z,47.62
2019-01-14T10:25:58.590Z,48.03
2019-01-14T10:26:58.577Z,47.60
2019-01-14T10:27:58.580Z,47.60
2019-01-14T10:28:58.561Z,47.10
2019-01-14T10:29:58.541Z,49.65
2019-01-14T10:30:58.539Z,50.09
2019-01-14T10:31:58.525Z,51.13
2019-01-14T10:32:58.527Z,51.98
2019-01-14T10:33:58.505Z,51.67
2019-01-14T10:34:58.510Z,51.54
2019-01-14T10:35:58.480Z,49.76
2019-01-14T10:36:58.464Z,48.36
2019-01-14T10:37:58.474Z,47.60
2019-01-14T10:38:58.443Z,47.92
2019-01-14T10:39:58.448Z,50.07
2019-01-14T10:40:58.421Z,50.27
2019-01-14T10:41:58.417Z,49.58
2019-01-14T10:42:58.429Z,46.58
2019-01-14T10:43:58.389Z,44.06
2019-01-14T10:44:58.378Z,43.30
2019-01-14T10:45:58.364Z,42.66
2019-01-14T10:46:58.349Z,41.40
2019-01-14T10:47:58.345Z,41.73
2019-01-14T10:48:58.361Z,43.19
2019-01-14T10:49:58.321Z,43.13
2019-01-14T10:50:58.309Z,41.96
2019-01-14T10:51:58.299Z,43.02
2019-01-14T10:52:58.281Z,43.48
2019-01-14T10:53:58.293Z,45.38
2019-01-14T10:54:58.269Z,45.86
2019-01-14T10:55:58.253Z,45.32
2019-01-14T10:56:58.246Z,45.26
2019-01-14T10:57:58.236Z,44.24
2019-01-14T10:58:58.236Z,45.71
2019-01-14T10:59:58.204Z,44.29
2019-01-14T11:00:58.195Z,45.47
2019-01-14T11:01:58.183Z,42.84
2019-01-14T11:02:58.181Z,45.30
2019-01-14T11:03:58.179Z,47.72
2019-01-14T11:04:58.151Z,45.53
2019-01-14T11:05:58.136Z,44.57
2019-01-14T11:06:58.127Z,43.26
2019-01-14T11:07:58.121Z,43.75
2019-01-14T11:09:05.775Z,42.66
2019-01-14T11:09:59.096Z,44.18
2019-01-14T11:10:58.106Z,45.26
2019-01-14T11:11:58.073Z,46.77
2019-01-14T11:12:58.061Z,45.23
2019-01-14T11:13:58.083Z,44.47
2019-01-14T11:15:02.729Z,43.05
2019-01-14T11:15:59.024Z,43.05
2019-01-14T11:16:58.018Z,46.36
2019-01-14T11:17:58.012Z,48.05
2019-01-14T11:18:58.009Z,49.01
2019-01-14T11:19:57.997Z,48.30
2019-01-14T11:20:57.970Z,49.99
2019-01-14T11:21:57.974Z,50.30
2019-01-14T11:22:57.952Z,50.17
2019-01-14T11:23:58.109Z,50.15
2019-01-14T11:24:57.944Z,49.55
2019-01-14T11:25:57.970Z,49.24
2019-01-14T11:26:57.920Z,48.69
2019-01-14T11:27:57.890Z,49.24
2019-01-14T11:28:57.924Z,50.07
2019-01-14T11:29:57.885Z,49.86
2019-01-14T11:30:57.863Z,48.09
2019-01-14T11:31:57.844Z,45.17
2019-01-14T11:32:57.839Z,45.73
2019-01-14T11:33:57.849Z,45.38
2019-01-14T11:34:57.811Z,47.08
2019-01-14T11:35:57.799Z,48.10
2019-01-14T11:36:57.787Z,46.62
2019-01-14T11:37:57.780Z,47.50
2019-01-14T11:39:04.732Z,47.27
2019-01-14T11:40:00.608Z,44.74
2019-01-14T11:40:58.622Z,42.96
2019-01-14T11:41:57.795Z,43.46
2019-01-14T11:42:57.724Z,45.36
2019-01-14T11:43:57.709Z,45.59
2019-01-14T11:44:59.181Z,46.85
2019-01-14T11:45:57.693Z,47.06
2019-01-14T11:46:57.762Z,47.00
2019-01-14T11:47:57.671Z,47.31
2019-01-14T11:48:57.651Z,47.75
2019-01-14T11:49:57.663Z,47.64
2019-01-14T11:50:57.633Z,48.16
2019-01-14T11:51:57.617Z,47.75
2019-01-14T11:52:57.612Z,48.79
2019-01-14T11:53:57.601Z,48.99
2019-01-14T11:54:57.603Z,49.41
2019-01-14T11:55:57.573Z,48.89
2019-01-14T11:56:57.565Z,48.06
2019-01-14T11:57:57.596Z,48.29
2019-01-14T11:58:57.641Z,50.03
2019-01-14T11:59:57.634Z,47.77
2019-01-14T12:00:58.089Z,48.58
2019-01-14T12:01:57.605Z,48.19
2019-01-14T12:02:57.653Z,45.90
2019-01-14T12:03:57.482Z,46.94
2019-01-14T12:04:57.493Z,47.15
2019-01-14T12:05:57.466Z,45.69
2019-01-14T12:06:57.474Z,45.90
2019-01-14T12:07:57.451Z,47.06
2019-01-14T12:08:57.443Z,46.84
2019-01-14T12:09:57.446Z,47.56
2019-01-14T12:10:57.411Z,47.38
2019-01-14T12:11:57.397Z,48.39
2019-01-14T12:12:57.387Z,48.50
2019-01-14T12:13:57.372Z,48.60
2019-01-14T12:14:57.394Z,47.36
2019-01-14T12:15:57.359Z,47.25
2019-01-14T12:16:58.107Z,46.73
2019-01-14T12:17:57.384Z,47.05
2019-01-14T12:18:57.372Z,46.42
2019-01-14T12:19:58.117Z,46.31
2019-01-14T12:20:58.077Z,47.15
2019-01-14T12:21:57.283Z,46.94
2019-01-14T12:22:57.276Z,47.25
2019-01-14T12:23:58.129Z,47.05
2019-01-14T12:24:59.134Z,46.63
2019-01-14T12:25:57.244Z,45.90
2019-01-14T12:26:57.238Z,46.11
2019-01-14T12:27:57.223Z,45.90
2019-01-14T12:28:57.208Z,46.42
2019-01-14T12:29:57.290Z,45.59
2019-01-14T12:30:57.188Z,45.38
2019-01-14T12:31:57.175Z,45.90
2019-01-14T12:32:57.161Z,46.75
2019-01-14T12:33:57.151Z,47.27
2019-01-14T12:34:57.140Z,47.06
2019-01-14T12:35:57.145Z,47.58
2019-01-14T12:36:57.124Z,48.10
2019-01-14T12:37:57.109Z,48.41
2019-01-14T12:38:57.095Z,47.69
2019-01-14T12:39:57.085Z,47.09
2019-01-14T12:40:57.093Z,47.92
2019-01-14T12:41:57.061Z,47.81
2019-01-14T12:42:57.051Z,48.75
2019-01-14T12:43:57.041Z,48.72
2019-01-14T12:44:57.032Z,48.85
2019-01-14T12:45:57.040Z,48.75
2019-01-14T12:46:57.010Z,48.33
2019-01-14T12:47:57.000Z,49.27
2019-01-14T12:48:56.984Z,47.92
2019-01-14T12:49:56.975Z,48.44
2019-01-14T12:50:56.976Z,48.54
2019-01-14T12:51:56.951Z,49.90